createdAt,value
2019-01-02T00:00:01.048Z,19.72
2019-01-02T00:00:26.623Z,19.8
2019-01-02T00:00:52.208Z,19.73
2019-01-02T00:01:17.779Z,19.73
2019-01-02T00:01:43.357Z,19.7
2019-01-02T00:02:08.926Z,19.73
2019-01-02T00:02:34.505Z,19.79
2019-01-02T00:03:00.071Z,19.78
2019-01-02T00:03:25.661Z,19.73
2019-01-02T00:03:51.238Z,19.72
2019-01-02T00:04:16.807Z,19.78
2019-01-02T00:04:42.393Z,19.78
2019-01-02T00:05:07.972Z,19.76
2019-01-02T00:05:33.545Z,19.76
2019-01-02T00:05:59.136Z,19.7
2019-01-02T00:06:24.717Z,19.79
2019-01-02T00:06:50.346Z,19.69
2019-01-02T00:07:15.927Z,19.79
2019-01-02T00:07:41.501Z,19.79
2019-01-02T00:08:07.077Z,19.76
2019-01-02T00:08:32.663Z,19.75
2019-01-02T00:08:58.235Z,19.69
2019-01-02T00:09:23.813Z,19.72
2019-01-02T00:09:49.391Z,19.72
2019-01-02T00:10:14.966Z,19.78
2019-01-02T00:10:40.533Z,19.78
2019-01-02T00:11:06.107Z,19.68
2019-01-02T00:11:31.671Z,19.76
2019-01-02T00:11:57.241Z,19.78
2019-01-02T00:12:22.813Z,19.79
2019-01-02T00:12:48.392Z,19.72
2019-01-02T00:13:13.963Z,19.72
2019-01-02T00:13:39.545Z,19.68
2019-01-02T00:14:05.123Z,19.68
2019-01-02T00:14:30.693Z,19.76
2019-01-02T00:14:56.291Z,19.76
2019-01-02T00:15:21.879Z,19.76
2019-01-02T00:15:47.446Z,19.72
2019-01-02T00:16:13.030Z,19.68
2019-01-02T00:16:38.604Z,19.68
2019-01-02T00:17:04.175Z,19.69
2019-01-02T00:17:29.752Z,19.68
2019-01-02T00:17:55.329Z,19.68
2019-01-02T00:18:20.897Z,19.76
2019-01-02T00:18:46.471Z,19.68
2019-01-02T00:19:12.027Z,19.75
2019-01-02T00:19:37.599Z,19.7
2019-01-02T00:20:03.191Z,19.63
2019-01-02T00:20:28.769Z,19.66
2019-01-02T00:20:54.325Z,19.68
2019-01-02T00:21:19.907Z,19.7
2019-01-02T00:21:45.498Z,19.68
2019-01-02T00:22:11.103Z,19.65
2019-01-02T00:22:36.669Z,19.7
2019-01-02T00:23:02.251Z,19.66
2019-01-02T00:23:27.816Z,19.69
2019-01-02T00:23:53.395Z,19.7
2019-01-02T00:24:18.969Z,19.79
2019-01-02T00:24:44.541Z,19.7
2019-01-02T00:25:10.115Z,19.63
2019-01-02T00:25:35.699Z,19.69
2019-01-02T00:26:01.277Z,19.69
2019-01-02T00:26:26.855Z,19.68
2019-01-02T00:26:52.428Z,19.66
2019-01-02T00:27:17.995Z,19.69
2019-01-02T00:27:43.570Z,19.63
2019-01-02T00:28:09.141Z,19.69
2019-01-02T00:28:34.714Z,19.68
2019-01-02T00:29:00.285Z,19.66
2019-01-02T00:29:25.855Z,19.68
2019-01-02T00:29:51.430Z,19.65
2019-01-02T00:30:17.005Z,19.7
2019-01-02T00:30:42.585Z,19.68
2019-01-02T00:31:08.178Z,19.69
2019-01-02T00:31:33.759Z,19.7
2019-01-02T00:31:59.338Z,19.66
2019-01-02T00:32:24.916Z,19.66
2019-01-02T00:32:50.495Z,19.66
2019-01-02T00:33:16.078Z,19.69
2019-01-02T00:33:41.671Z,19.66
2019-01-02T00:34:07.245Z,19.69
2019-01-02T00:34:32.818Z,19.65
2019-01-02T00:34:58.391Z,19.65
2019-01-02T00:35:23.968Z,19.69
2019-01-02T00:35:49.537Z,19.68
2019-01-02T00:36:15.110Z,19.75
2019-01-02T00:36:40.684Z,19.69
2019-01-02T00:37:06.262Z,19.7
2019-01-02T00:37:31.852Z,19.69
2019-01-02T00:37:57.420Z,19.63
2019-01-02T00:38:23.000Z,19.68
2019-01-02T00:38:48.565Z,19.69
2019-01-02T00:39:14.147Z,19.66
2019-01-02T00:39:39.721Z,19.72
2019-01-02T00:40:05.301Z,19.65
2019-01-02T00:40:30.866Z,19.69
2019-01-02T00:40:56.456Z,19.69
2019-01-02T00:41:22.026Z,19.69
2019-01-02T00:41:47.597Z,19.63
2019-01-02T00:42:13.182Z,19.7
2019-01-02T00:42:38.759Z,19.65
2019-01-02T00:43:04.333Z,19.69
2019-01-02T00:43:29.905Z,19.69
2019-01-02T00:43:55.485Z,19.69
2019-01-02T00:44:21.069Z,19.68
2019-01-02T00:44:46.659Z,19.7
2019-01-02T00:45:12.232Z,19.72
2019-01-02T00:45:37.824Z,19.72
2019-01-02T00:46:03.399Z,19.69
2019-01-02T00:46:28.977Z,19.7
2019-01-02T00:46:54.567Z,19.7
2019-01-02T00:47:20.123Z,19.72
2019-01-02T00:47:45.695Z,19.65
2019-01-02T00:48:11.269Z,19.65
2019-01-02T00:48:36.829Z,19.76
2019-01-02T00:49:02.407Z,19.7
2019-01-02T00:49:27.994Z,19.69
2019-01-02T00:49:53.562Z,19.7
2019-01-02T00:50:19.146Z,19.65
2019-01-02T00:50:44.727Z,19.63
2019-01-02T00:51:10.295Z,19.66
2019-01-02T00:51:35.858Z,19.68
2019-01-02T00:52:01.447Z,19.66
2019-01-02T00:52:27.019Z,19.65
2019-01-02T00:52:52.590Z,19.66
2019-01-02T00:53:18.168Z,19.65
2019-01-02T00:53:43.747Z,19.69
2019-01-02T00:54:09.319Z,19.69
2019-01-02T00:54:34.889Z,19.68
2019-01-02T00:55:00.470Z,19.7
2019-01-02T00:55:26.038Z,19.68
2019-01-02T00:55:51.614Z,19.66
2019-01-02T00:56:17.190Z,19.66
2019-01-02T00:56:42.794Z,19.66
2019-01-02T00:57:08.371Z,19.69
2019-01-02T00:57:33.957Z,19.66
2019-01-02T00:57:59.533Z,19.65
2019-01-02T00:58:25.110Z,19.66
2019-01-02T00:58:50.684Z,19.66
2019-01-02T00:59:16.270Z,19.69
2019-01-02T00:59:41.844Z,19.68
2019-01-02T01:00:07.422Z,19.66
2019-01-02T01:00:32.994Z,19.66
2019-01-02T01:00:58.566Z,19.69
2019-01-02T01:01:24.142Z,19.68
2019-01-02T01:01:49.720Z,19.68
2019-01-02T01:02:15.292Z,19.69
2019-01-02T01:02:40.877Z,19.69
2019-01-02T01:03:06.466Z,19.7
2019-01-02T01:03:32.076Z,19.65
2019-01-02T01:03:57.645Z,19.65
2019-01-02T01:04:23.226Z,19.7
2019-01-02T01:04:48.792Z,19.75
2019-01-02T01:05:14.366Z,19.68
2019-01-02T01:05:39.938Z,19.66
2019-01-02T01:06:05.500Z,19.68
2019-01-02T01:06:31.082Z,19.66
2019-01-02T01:06:56.662Z,19.68
2019-01-02T01:07:22.234Z,19.66
2019-01-02T01:07:47.818Z,19.66
2019-01-02T01:08:13.402Z,19.66
2019-01-02T01:08:38.994Z,19.69
2019-01-02T01:09:04.576Z,19.66
2019-01-02T01:09:30.164Z,19.7
2019-01-02T01:09:55.736Z,19.66
2019-01-02T01:10:21.314Z,19.68
2019-01-02T01:10:46.876Z,19.73
2019-01-02T01:11:12.450Z,19.65
2019-01-02T01:11:38.030Z,19.69
2019-01-02T01:12:03.606Z,19.7
2019-01-02T01:12:29.186Z,19.63
2019-01-02T01:12:54.754Z,19.68
2019-01-02T01:13:20.332Z,19.63
2019-01-02T01:13:45.912Z,19.73
2019-01-02T01:14:11.477Z,19.73
2019-01-02T01:14:37.048Z,19.65
2019-01-02T01:15:02.610Z,19.68
2019-01-02T01:15:28.190Z,19.63
2019-01-02T01:15:53.760Z,19.66
2019-01-02T01:16:19.333Z,19.7
2019-01-02T01:16:44.901Z,19.68
2019-01-02T01:17:10.471Z,19.63
2019-01-02T01:17:36.067Z,19.72
2019-01-02T01:18:01.612Z,19.66
2019-01-02T01:18:27.189Z,19.68
2019-01-02T01:18:52.783Z,19.7
2019-01-02T01:19:18.368Z,19.65
2019-01-02T01:19:43.934Z,19.57
2019-01-02T01:20:09.517Z,19.68
2019-01-02T01:20:35.096Z,19.63
2019-01-02T01:21:00.694Z,19.75
2019-01-02T01:21:26.269Z,19.73
2019-01-02T01:21:51.848Z,19.73
2019-01-02T01:22:17.422Z,19.66
2019-01-02T01:22:42.980Z,19.7
2019-01-02T01:23:08.563Z,19.72
2019-01-02T01:23:34.145Z,19.65
2019-01-02T01:23:59.708Z,19.75
2019-01-02T01:24:25.286Z,19.68
2019-01-02T01:24:50.865Z,19.57
2019-01-02T01:25:16.457Z,19.66
2019-01-02T01:25:42.027Z,19.75
2019-01-02T01:26:07.602Z,19.57
2019-01-02T01:26:33.166Z,19.65
2019-01-02T01:26:58.745Z,19.73
2019-01-02T01:27:24.366Z,19.75
2019-01-02T01:27:49.948Z,19.66
2019-01-02T01:28:15.514Z,19.68
2019-01-02T01:28:41.085Z,19.69
2019-01-02T01:29:06.658Z,19.65
2019-01-02T01:29:32.241Z,19.66
2019-01-02T01:29:57.820Z,19.63
2019-01-02T01:30:23.390Z,19.72
2019-01-02T01:30:48.980Z,19.7
2019-01-02T01:31:14.552Z,19.63
2019-01-02T01:31:40.118Z,19.72
2019-01-02T01:32:05.713Z,19.69
2019-01-02T01:32:31.279Z,19.68
2019-01-02T01:32:56.916Z,19.65
2019-01-02T01:33:22.485Z,19.54
2019-01-02T01:33:48.078Z,19.66
2019-01-02T01:34:13.657Z,19.66
2019-01-02T01:34:39.235Z,19.72
2019-01-02T01:35:04.818Z,19.58
2019-01-02T01:35:30.387Z,19.72
2019-01-02T01:35:55.963Z,19.68
2019-01-02T01:36:21.544Z,19.63
2019-01-02T01:36:47.110Z,19.65
2019-01-02T01:37:12.681Z,19.66
2019-01-02T01:37:38.251Z,19.61
2019-01-02T01:38:03.843Z,19.75
2019-01-02T01:38:29.419Z,19.58
2019-01-02T01:38:54.977Z,19.72
2019-01-02T01:39:20.557Z,19.63
2019-01-02T01:39:46.123Z,19.7
2019-01-02T01:40:11.692Z,19.72
2019-01-02T01:40:37.263Z,19.72
2019-01-02T01:41:02.832Z,19.73
2019-01-02T01:41:28.399Z,19.72
2019-01-02T01:41:53.982Z,19.72
2019-01-02T01:42:19.562Z,19.68
2019-01-02T01:42:45.149Z,19.68
2019-01-02T01:43:10.746Z,19.68
2019-01-02T01:43:36.353Z,19.72
2019-01-02T01:44:01.936Z,19.68
2019-01-02T01:44:27.508Z,19.66
2019-01-02T01:44:53.097Z,19.66
2019-01-02T01:45:18.664Z,19.66
2019-01-02T01:45:44.244Z,19.65
2019-01-02T01:46:09.828Z,19.66
2019-01-02T01:46:35.396Z,19.66
2019-01-02T01:47:00.976Z,19.68
2019-01-02T01:47:26.558Z,19.66
2019-01-02T01:47:52.125Z,19.63
2019-01-02T01:48:17.687Z,19.57
2019-01-02T01:48:43.271Z,19.68
2019-01-02T01:49:08.852Z,19.63
2019-01-02T01:49:34.439Z,19.6
2019-01-02T01:50:00.003Z,19.57
2019-01-02T01:50:25.581Z,19.69
2019-01-02T01:50:51.149Z,19.65
2019-01-02T01:51:16.725Z,19.69
2019-01-02T01:51:42.285Z,19.66
2019-01-02T01:52:07.854Z,19.66
2019-01-02T01:52:33.437Z,19.54
2019-01-02T01:52:59.027Z,19.66
2019-01-02T01:53:24.598Z,19.72
2019-01-02T01:53:50.160Z,19.55
2019-01-02T01:54:15.746Z,19.66
2019-01-02T01:54:41.322Z,19.54
2019-01-02T01:55:06.904Z,19.68
2019-01-02T01:55:32.482Z,19.66
2019-01-02T01:55:58.070Z,19.66
2019-01-02T01:56:23.671Z,19.68
2019-01-02T01:56:49.248Z,19.65
2019-01-02T01:57:14.821Z,19.63
2019-01-02T01:57:40.401Z,19.65
2019-01-02T01:58:05.985Z,19.72
2019-01-02T01:58:31.574Z,19.65
2019-01-02T01:58:57.166Z,19.68
2019-01-02T01:59:22.751Z,19.63
2019-01-02T01:59:48.352Z,19.65
2019-01-02T02:00:13.926Z,19.66
2019-01-02T02:00:39.500Z,19.63
2019-01-02T02:01:05.079Z,19.65
2019-01-02T02:01:30.648Z,19.55
2019-01-02T02:01:56.236Z,19.61
2019-01-02T02:02:21.804Z,19.63
2019-01-02T02:02:47.394Z,19.65
2019-01-02T02:03:12.974Z,19.61
2019-01-02T02:03:38.541Z,19.66
2019-01-02T02:04:04.121Z,19.65
2019-01-02T02:04:29.698Z,19.68
2019-01-02T02:04:55.275Z,19.65
2019-01-02T02:05:20.876Z,19.66
2019-01-02T02:05:46.434Z,19.65
2019-01-02T02:06:11.994Z,19.65
2019-01-02T02:06:37.556Z,19.68
2019-01-02T02:07:03.128Z,19.66
2019-01-02T02:07:28.695Z,19.66
2019-01-02T02:07:54.248Z,19.63
2019-01-02T02:08:19.828Z,19.66
2019-01-02T02:08:45.408Z,19.66
2019-01-02T02:09:10.974Z,19.65
2019-01-02T02:09:36.567Z,19.6
2019-01-02T02:10:02.124Z,19.65
2019-01-02T02:10:27.708Z,19.68
2019-01-02T02:10:53.282Z,19.61
2019-01-02T02:11:18.843Z,19.58
2019-01-02T02:11:44.416Z,19.58
2019-01-02T02:12:09.986Z,19.63
2019-01-02T02:12:35.549Z,19.61
2019-01-02T02:13:01.138Z,19.68
2019-01-02T02:13:26.711Z,19.63
2019-01-02T02:13:52.296Z,19.66
2019-01-02T02:14:17.871Z,19.66
2019-01-02T02:14:43.447Z,19.6
2019-01-02T02:15:09.036Z,19.61
2019-01-02T02:15:34.606Z,19.6
2019-01-02T02:16:00.178Z,19.65
2019-01-02T02:16:25.754Z,19.58
2019-01-02T02:16:51.325Z,19.61
2019-01-02T02:17:16.900Z,19.58
2019-01-02T02:17:42.474Z,19.6
2019-01-02T02:18:08.050Z,19.58
2019-01-02T02:18:36.420Z,19.65
2019-01-02T02:19:00.567Z,19.61
2019-01-02T02:19:26.144Z,19.61
2019-01-02T02:19:51.712Z,19.66
2019-01-02T02:20:17.287Z,19.61
2019-01-02T02:20:42.857Z,19.65
2019-01-02T02:21:08.434Z,19.68
2019-01-02T02:21:33.999Z,19.61
2019-01-02T02:21:59.561Z,19.63
2019-01-02T02:22:25.134Z,19.57
2019-01-02T02:22:50.737Z,19.65
2019-01-02T02:23:16.312Z,19.63
2019-01-02T02:23:41.900Z,19.58
2019-01-02T02:24:07.469Z,19.68
2019-01-02T02:24:33.045Z,19.6
2019-01-02T02:24:58.626Z,19.63
2019-01-02T02:25:24.205Z,19.65
2019-01-02T02:25:49.780Z,19.63
2019-01-02T02:26:15.369Z,19.63
2019-01-02T02:26:40.930Z,19.68
2019-01-02T02:27:06.500Z,19.65
2019-01-02T02:27:32.069Z,19.68
2019-01-02T02:27:57.659Z,19.58
2019-01-02T02:28:23.241Z,19.58
2019-01-02T02:28:48.827Z,19.69
2019-01-02T02:29:14.420Z,19.63
2019-01-02T02:29:39.994Z,19.63
2019-01-02T02:30:05.565Z,19.68
2019-01-02T02:30:31.136Z,19.63
2019-01-02T02:30:56.706Z,19.61
2019-01-02T02:31:22.300Z,19.63
2019-01-02T02:31:47.861Z,19.68
2019-01-02T02:32:13.432Z,19.53
2019-01-02T02:32:38.997Z,19.61
2019-01-02T02:33:04.575Z,19.63
2019-01-02T02:33:30.154Z,19.68
2019-01-02T02:33:55.733Z,19.65
2019-01-02T02:34:21.315Z,19.57
2019-01-02T02:34:46.871Z,19.68
2019-01-02T02:35:12.447Z,19.63
2019-01-02T02:35:38.009Z,19.61
2019-01-02T02:36:03.597Z,19.61
2019-01-02T02:36:29.160Z,19.61
2019-01-02T02:36:54.731Z,19.6
2019-01-02T02:37:20.305Z,19.68
2019-01-02T02:37:45.877Z,19.61
2019-01-02T02:38:11.439Z,19.66
2019-01-02T02:38:37.045Z,19.6
2019-01-02T02:39:02.608Z,19.58
2019-01-02T02:39:28.175Z,19.66
2019-01-02T02:39:53.755Z,19.61
2019-01-02T02:40:19.340Z,19.63
2019-01-02T02:40:44.935Z,19.6
2019-01-02T02:41:10.509Z,19.61
2019-01-02T02:41:36.079Z,19.63
2019-01-02T02:42:01.665Z,19.6
2019-01-02T02:42:27.237Z,19.63
2019-01-02T02:42:52.819Z,19.58
2019-01-02T02:43:18.390Z,19.66
2019-01-02T02:43:43.943Z,19.57
2019-01-02T02:44:09.511Z,19.66
2019-01-02T02:44:35.081Z,19.66
2019-01-02T02:45:00.658Z,19.55
2019-01-02T02:45:26.237Z,19.61
2019-01-02T02:45:51.797Z,19.55
2019-01-02T02:46:17.377Z,19.61
2019-01-02T02:46:42.958Z,19.63
2019-01-02T02:47:08.527Z,19.54
2019-01-02T02:47:34.107Z,19.58
2019-01-02T02:47:59.685Z,19.57
2019-01-02T02:48:25.251Z,19.63
2019-01-02T02:48:50.821Z,19.63
2019-01-02T02:49:16.403Z,19.66
2019-01-02T02:49:41.976Z,19.61
2019-01-02T02:50:07.541Z,19.61
2019-01-02T02:50:33.125Z,19.58
2019-01-02T02:50:58.722Z,19.63
2019-01-02T02:51:24.289Z,19.6
2019-01-02T02:51:49.852Z,19.61
2019-01-02T02:52:15.435Z,19.58
2019-01-02T02:52:41.014Z,19.65
2019-01-02T02:53:06.595Z,19.63
2019-01-02T02:53:32.174Z,19.61
2019-01-02T02:53:57.747Z,19.61
2019-01-02T02:54:23.315Z,19.65
2019-01-02T02:54:48.901Z,19.6
2019-01-02T02:55:14.499Z,19.61
2019-01-02T02:55:40.087Z,19.68
2019-01-02T02:56:05.677Z,19.58
2019-01-02T02:56:31.263Z,19.63
2019-01-02T02:56:56.895Z,19.7
2019-01-02T02:57:22.468Z,19.65
2019-01-02T02:57:48.051Z,19.63
2019-01-02T02:58:13.617Z,19.61
2019-01-02T02:58:39.201Z,19.68
2019-01-02T02:59:04.758Z,19.61
2019-01-02T02:59:30.334Z,19.57
2019-01-02T02:59:55.911Z,19.54
2019-01-02T03:00:21.501Z,19.6
2019-01-02T03:00:47.073Z,19.66
2019-01-02T03:01:12.644Z,19.65
2019-01-02T03:01:38.209Z,19.54
2019-01-02T03:02:03.793Z,19.6
2019-01-02T03:02:29.373Z,19.63
2019-01-02T03:02:54.984Z,19.65
2019-01-02T03:03:20.593Z,19.65
2019-01-02T03:03:46.165Z,19.57
2019-01-02T03:04:11.747Z,19.61
2019-01-02T03:04:37.324Z,19.63
2019-01-02T03:05:02.907Z,19.66
2019-01-02T03:05:28.485Z,19.61
2019-01-02T03:05:54.074Z,19.66
2019-01-02T03:06:19.798Z,19.63
2019-01-02T03:06:46.334Z,19.6
2019-01-02T03:07:10.809Z,19.6
2019-01-02T03:07:36.378Z,19.61
2019-01-02T03:08:01.959Z,19.63
2019-01-02T03:08:27.529Z,19.68
2019-01-02T03:08:53.115Z,19.57
2019-01-02T03:09:18.703Z,19.65
2019-01-02T03:09:44.271Z,19.54
2019-01-02T03:10:09.836Z,19.66
2019-01-02T03:10:35.400Z,19.63
2019-01-02T03:11:00.969Z,19.54
2019-01-02T03:11:26.539Z,19.63
2019-01-02T03:11:52.105Z,19.55
2019-01-02T03:12:17.679Z,19.6
2019-01-02T03:12:43.271Z,19.57
2019-01-02T03:13:08.860Z,19.65
2019-01-02T03:13:34.440Z,19.66
2019-01-02T03:14:00.012Z,19.57
2019-01-02T03:14:25.593Z,19.6
2019-01-02T03:14:51.178Z,19.66
2019-01-02T03:15:16.751Z,19.55
2019-01-02T03:15:42.326Z,19.53
2019-01-02T03:16:07.904Z,19.63
2019-01-02T03:16:33.484Z,19.55
2019-01-02T03:16:59.050Z,19.57
2019-01-02T03:17:24.608Z,19.58
2019-01-02T03:17:50.188Z,19.6
2019-01-02T03:18:15.769Z,19.53
2019-01-02T03:18:41.342Z,19.66
2019-01-02T03:19:06.912Z,19.66
2019-01-02T03:19:32.508Z,19.6
2019-01-02T03:19:58.070Z,19.65
2019-01-02T03:20:23.652Z,19.54
2019-01-02T03:20:49.211Z,19.61
2019-01-02T03:21:14.786Z,19.68
2019-01-02T03:21:40.351Z,19.6
2019-01-02T03:22:05.928Z,19.65
2019-01-02T03:22:31.526Z,19.55
2019-01-02T03:22:57.088Z,19.65
2019-01-02T03:23:22.649Z,19.6
2019-01-02T03:23:48.218Z,19.69
2019-01-02T03:24:13.787Z,19.55
2019-01-02T03:24:39.360Z,19.57
2019-01-02T03:25:04.931Z,19.65
2019-01-02T03:25:30.507Z,19.65
2019-01-02T03:25:56.080Z,19.54
2019-01-02T03:26:21.656Z,19.61
2019-01-02T03:26:47.230Z,19.63
2019-01-02T03:27:12.798Z,19.61
2019-01-02T03:27:38.374Z,19.65
2019-01-02T03:28:03.954Z,19.54
2019-01-02T03:28:29.519Z,19.58
2019-01-02T03:28:55.092Z,19.54
2019-01-02T03:29:20.664Z,19.5
2019-01-02T03:29:46.252Z,19.54
2019-01-02T03:30:11.836Z,19.63
2019-01-02T03:30:37.412Z,19.55
2019-01-02T03:31:02.981Z,19.68
2019-01-02T03:31:28.555Z,19.53
2019-01-02T03:31:54.144Z,19.68
2019-01-02T03:32:19.724Z,19.54
2019-01-02T03:32:45.319Z,19.6
2019-01-02T03:33:10.892Z,19.54
2019-01-02T03:33:36.475Z,19.51
2019-01-02T03:34:02.054Z,19.57
2019-01-02T03:34:27.625Z,19.55
2019-01-02T03:34:53.184Z,19.61
2019-01-02T03:35:18.758Z,19.58
2019-01-02T03:35:44.332Z,19.6
2019-01-02T03:36:09.892Z,19.6
2019-01-02T03:36:35.468Z,19.6
2019-01-02T03:37:01.042Z,19.57
2019-01-02T03:37:26.624Z,19.6
2019-01-02T03:37:52.192Z,19.58
2019-01-02T03:38:17.760Z,19.48
2019-01-02T03:38:43.344Z,19.53
2019-01-02T03:39:08.911Z,19.54
2019-01-02T03:39:34.498Z,19.63
2019-01-02T03:40:00.087Z,19.54
2019-01-02T03:40:25.652Z,19.57
2019-01-02T03:40:51.256Z,19.65
2019-01-02T03:41:16.843Z,19.65
2019-01-02T03:41:42.420Z,19.63
2019-01-02T03:42:07.989Z,19.6
2019-01-02T03:42:33.550Z,19.66
2019-01-02T03:42:59.141Z,19.61
2019-01-02T03:43:24.717Z,19.63
2019-01-02T03:43:50.296Z,19.6
2019-01-02T03:44:15.879Z,19.6
2019-01-02T03:44:41.450Z,19.6
2019-01-02T03:45:07.026Z,19.63
2019-01-02T03:45:32.609Z,19.6
2019-01-02T03:45:58.189Z,19.65
2019-01-02T03:46:23.758Z,19.55
2019-01-02T03:46:49.350Z,19.55
2019-01-02T03:47:14.927Z,19.58
2019-01-02T03:47:40.504Z,19.54
2019-01-02T03:48:06.076Z,19.57
2019-01-02T03:48:31.661Z,19.51
2019-01-02T03:48:57.258Z,19.55
2019-01-02T03:49:22.822Z,19.66
2019-01-02T03:49:48.424Z,19.5
2019-01-02T03:50:13.994Z,19.65
2019-01-02T03:50:39.548Z,19.6
2019-01-02T03:51:05.123Z,19.54
2019-01-02T03:51:30.697Z,19.58
2019-01-02T03:51:56.259Z,19.54
2019-01-02T03:52:21.828Z,19.51
2019-01-02T03:52:47.401Z,19.65
2019-01-02T03:53:12.969Z,19.57
2019-01-02T03:53:38.543Z,19.57
2019-01-02T03:54:04.104Z,19.51
2019-01-02T03:54:29.668Z,19.54
2019-01-02T03:54:55.251Z,19.58
2019-01-02T03:55:20.821Z,19.5
2019-01-02T03:55:46.408Z,19.5
2019-01-02T03:56:11.990Z,19.54
2019-01-02T03:56:37.558Z,19.51
2019-01-02T03:57:03.140Z,19.5
2019-01-02T03:57:28.730Z,19.53
2019-01-02T03:57:54.304Z,19.58
2019-01-02T03:58:19.879Z,19.58
2019-01-02T03:58:45.454Z,19.53
2019-01-02T03:59:11.038Z,19.54
2019-01-02T03:59:36.606Z,19.51
2019-01-02T04:00:02.164Z,19.57
2019-01-02T04:00:27.764Z,19.48
2019-01-02T04:00:53.353Z,19.51
2019-01-02T04:01:18.920Z,19.55
2019-01-02T04:01:44.493Z,19.53
2019-01-02T04:02:10.073Z,19.55
2019-01-02T04:02:35.645Z,19.57
2019-01-02T04:03:01.203Z,19.54
2019-01-02T04:03:26.774Z,19.48
2019-01-02T04:03:52.342Z,19.58
2019-01-02T04:04:17.926Z,19.57
2019-01-02T04:04:43.514Z,19.53
2019-01-02T04:05:09.078Z,19.51
2019-01-02T04:05:34.637Z,19.54
2019-01-02T04:06:00.239Z,19.53
2019-01-02T04:06:25.835Z,19.51
2019-01-02T04:06:51.403Z,19.54
2019-01-02T04:07:16.974Z,19.54
2019-01-02T04:07:42.545Z,19.53
2019-01-02T04:08:08.120Z,19.58
2019-01-02T04:08:33.705Z,19.57
2019-01-02T04:08:59.257Z,19.58
2019-01-02T04:09:24.834Z,19.51
2019-01-02T04:09:50.420Z,19.51
2019-01-02T04:10:15.996Z,19.55
2019-01-02T04:10:41.593Z,19.51
2019-01-02T04:11:07.156Z,19.57
2019-01-02T04:11:32.726Z,19.5
2019-01-02T04:11:58.277Z,19.55
2019-01-02T04:12:23.848Z,19.51
2019-01-02T04:12:49.415Z,19.54
2019-01-02T04:13:15.009Z,19.55
2019-01-02T04:13:40.583Z,19.5
2019-01-02T04:14:06.154Z,19.53
2019-01-02T04:14:31.736Z,19.54
2019-01-02T04:14:57.334Z,19.54
2019-01-02T04:15:22.919Z,19.57
2019-01-02T04:15:48.497Z,19.48
2019-01-02T04:16:14.080Z,19.5
2019-01-02T04:16:39.662Z,19.54
2019-01-02T04:17:05.254Z,19.5
2019-01-02T04:17:30.819Z,19.57
2019-01-02T04:17:56.387Z,19.51
2019-01-02T04:18:21.956Z,19.51
2019-01-02T04:18:47.533Z,19.57
2019-01-02T04:19:13.118Z,19.54
2019-01-02T04:19:38.685Z,19.53
2019-01-02T04:20:04.262Z,19.55
2019-01-02T04:20:29.834Z,19.54
2019-01-02T04:20:55.386Z,19.58
2019-01-02T04:21:20.956Z,19.58
2019-01-02T04:21:46.525Z,19.5
2019-01-02T04:22:12.094Z,19.55
2019-01-02T04:22:37.669Z,19.54
2019-01-02T04:23:03.261Z,19.55
2019-01-02T04:23:28.802Z,19.57
2019-01-02T04:23:54.382Z,19.54
2019-01-02T04:24:19.950Z,19.53
2019-01-02T04:24:45.531Z,19.54
2019-01-02T04:25:11.107Z,19.48
2019-01-02T04:25:36.682Z,19.51
2019-01-02T04:26:02.265Z,19.53
2019-01-02T04:26:27.828Z,19.51
2019-01-02T04:26:53.396Z,19.57
2019-01-02T04:27:18.977Z,19.53
2019-01-02T04:27:44.558Z,19.5
2019-01-02T04:28:10.122Z,19.53
2019-01-02T04:28:35.708Z,19.55
2019-01-02T04:29:01.300Z,19.58
2019-01-02T04:29:26.893Z,19.55
2019-01-02T04:29:52.530Z,19.48
2019-01-02T04:30:18.102Z,19.51
2019-01-02T04:30:43.678Z,19.53
2019-01-02T04:31:09.239Z,19.51
2019-01-02T04:31:34.816Z,19.55
2019-01-02T04:32:00.376Z,19.53
2019-01-02T04:32:26.020Z,19.58
2019-01-02T04:32:51.594Z,19.6
2019-01-02T04:33:17.145Z,19.55
2019-01-02T04:33:42.710Z,19.51
2019-01-02T04:34:08.291Z,19.53
2019-01-02T04:34:33.857Z,19.53
2019-01-02T04:34:59.428Z,19.54
2019-01-02T04:35:25.003Z,19.53
2019-01-02T04:35:50.593Z,19.55
2019-01-02T04:36:16.178Z,19.55
2019-01-02T04:36:41.743Z,19.54
2019-01-02T04:37:07.332Z,19.54
2019-01-02T04:37:32.907Z,19.57
2019-01-02T04:37:58.471Z,19.51
2019-01-02T04:38:24.044Z,19.57
2019-01-02T04:38:49.637Z,19.57
2019-01-02T04:39:15.210Z,19.55
2019-01-02T04:39:40.778Z,19.51
2019-01-02T04:40:06.344Z,19.58
2019-01-02T04:40:31.929Z,19.58
2019-01-02T04:40:57.501Z,19.65
2019-01-02T04:41:23.069Z,19.54
2019-01-02T04:41:48.644Z,19.58
2019-01-02T04:42:14.266Z,19.6
2019-01-02T04:42:39.826Z,19.61
2019-01-02T04:43:05.400Z,19.54
2019-01-02T04:43:30.983Z,19.68
2019-01-02T04:43:56.581Z,19.63
2019-01-02T04:44:22.150Z,19.58
2019-01-02T04:44:47.722Z,19.58
2019-01-02T04:45:13.329Z,19.63
2019-01-02T04:45:38.900Z,19.58
2019-01-02T04:46:04.534Z,19.63
2019-01-02T04:46:30.111Z,19.61
2019-01-02T04:46:55.692Z,19.65
2019-01-02T04:47:21.280Z,19.66
2019-01-02T04:47:46.858Z,19.61
2019-01-02T04:48:12.422Z,19.66
2019-01-02T04:48:37.994Z,19.58
2019-01-02T04:49:03.560Z,19.63
2019-01-02T04:49:29.118Z,19.66
2019-01-02T04:49:54.703Z,19.65
2019-01-02T04:50:20.300Z,19.63
2019-01-02T04:50:45.869Z,19.69
2019-01-02T04:51:11.443Z,19.61
2019-01-02T04:51:37.021Z,19.63
2019-01-02T04:52:02.594Z,19.69
2019-01-02T04:52:28.184Z,19.66
2019-01-02T04:52:53.768Z,19.66
2019-01-02T04:53:19.354Z,19.66
2019-01-02T04:53:44.916Z,19.7
2019-01-02T04:54:10.491Z,19.7
2019-01-02T04:54:36.078Z,19.66
2019-01-02T04:55:01.660Z,19.68
2019-01-02T04:55:27.232Z,19.58
2019-01-02T04:55:52.802Z,19.68
2019-01-02T04:56:18.385Z,19.65
2019-01-02T04:56:43.967Z,19.7
2019-01-02T04:57:09.539Z,19.66
2019-01-02T04:57:35.107Z,19.68
2019-01-02T04:58:00.670Z,19.72
2019-01-02T04:58:26.244Z,19.68
2019-01-02T04:58:51.822Z,19.61
2019-01-02T04:59:17.396Z,19.54
2019-01-02T04:59:42.975Z,19.69
2019-01-02T05:00:08.530Z,19.66
2019-01-02T05:00:34.107Z,19.54
2019-01-02T05:00:59.685Z,19.72
2019-01-02T05:01:25.315Z,19.57
2019-01-02T05:01:50.889Z,19.68
2019-01-02T05:02:16.471Z,19.66
2019-01-02T05:02:42.102Z,19.69
2019-01-02T05:03:07.646Z,19.72
2019-01-02T05:03:33.231Z,19.61
2019-01-02T05:03:58.807Z,19.73
2019-01-02T05:04:24.377Z,19.75
2019-01-02T05:04:49.970Z,19.73
2019-01-02T05:05:15.532Z,19.73
2019-01-02T05:05:41.129Z,19.66
2019-01-02T05:06:06.702Z,19.68
2019-01-02T05:06:32.283Z,19.68
2019-01-02T05:06:57.829Z,19.72
2019-01-02T05:07:23.403Z,19.72
2019-01-02T05:07:48.973Z,19.66
2019-01-02T05:08:14.536Z,19.68
2019-01-02T05:08:40.101Z,19.7
2019-01-02T05:09:05.680Z,19.69
2019-01-02T05:09:31.260Z,19.63
2019-01-02T05:09:56.825Z,19.78
2019-01-02T05:10:22.407Z,19.63
2019-01-02T05:10:47.976Z,19.66
2019-01-02T05:11:13.565Z,19.69
2019-01-02T05:11:39.177Z,19.68
2019-01-02T05:12:04.719Z,19.66
2019-01-02T05:12:30.287Z,19.65
2019-01-02T05:12:55.872Z,19.7
2019-01-02T05:13:21.468Z,19.75
2019-01-02T05:13:47.010Z,19.66
2019-01-02T05:14:12.590Z,19.7
2019-01-02T05:14:38.181Z,19.61
2019-01-02T05:15:03.773Z,19.65
2019-01-02T05:15:29.300Z,19.68
2019-01-02T05:15:54.882Z,19.8
2019-01-02T05:16:20.453Z,19.69
2019-01-02T05:16:46.013Z,19.72
2019-01-02T05:17:11.606Z,19.69
2019-01-02T05:17:37.208Z,19.66
2019-01-02T05:18:02.805Z,19.69
2019-01-02T05:18:28.392Z,19.8
2019-01-02T05:18:53.950Z,19.66
2019-01-02T05:19:19.530Z,19.66
2019-01-02T05:19:45.091Z,19.65
2019-01-02T05:20:10.676Z,19.66
2019-01-02T05:20:36.252Z,19.7
2019-01-02T05:21:01.844Z,19.66
2019-01-02T05:21:27.404Z,19.61
2019-01-02T05:21:52.978Z,19.65
2019-01-02T05:22:18.552Z,19.7
2019-01-02T05:22:44.125Z,19.69
2019-01-02T05:23:09.688Z,19.66
2019-01-02T05:23:35.252Z,19.66
2019-01-02T05:24:00.812Z,19.68
2019-01-02T05:24:26.382Z,19.66
2019-01-02T05:24:51.962Z,19.65
2019-01-02T05:25:17.525Z,19.66
2019-01-02T05:25:43.130Z,19.69
2019-01-02T05:26:08.695Z,19.68
2019-01-02T05:26:34.274Z,19.63
2019-01-02T05:26:59.846Z,19.69
2019-01-02T05:27:25.406Z,19.65
2019-01-02T05:27:50.986Z,19.66
2019-01-02T05:28:16.577Z,19.69
2019-01-02T05:28:42.146Z,19.7
2019-01-02T05:29:07.718Z,19.7
2019-01-02T05:29:33.290Z,19.68
2019-01-02T05:29:58.870Z,19.63
2019-01-02T05:30:24.520Z,19.68